This is the latest recevied weather packets stored in our database for station/object dl1wer-13. If no packets are shown the sender has not sent any weather packets the latest 10 day(s).
| Time | Temp. | Humidity | Pressure | Rain* | Wind** | Luminosity | Snow |
|---|---|---|---|---|---|---|---|
| 1778189426 | 10° C | 86% | 1042.1 hPa | 0 mm | - | - | - |
| 1778188825 | 10° C | 85% | 1042.3 hPa | 0 mm | - | - | - |
| 1778188225 | 10° C | 84% | 1042.4 hPa | 0 mm | - | - | - |
| 1778187625 | 10° C | 84% | 1042.4 hPa | 0 mm | - | - | - |
| 1778187024 | 10° C | 85% | 1042.6 hPa | 0 mm | - | - | - |
| 1778186425 | 10° C | 85% | 1042.2 hPa | 0 mm | - | - | - |
| 1778185825 | 10° C | 85% | 1042.4 hPa | 0 mm | - | - | - |
| 1778185225 | 10° C | 85% | 1042.4 hPa | 0 mm | - | - | - |
| 1778184625 | 10° C | 85% | 1042.4 hPa | 0 mm | - | - | - |
| 1778184026 | 10° C | 85% | 1042.2 hPa | 0 mm | - | - | - |
| 1778183425 | 9.44° C | 84% | 1042 hPa | 0 mm | - | - | - |
| 1778182825 | 10° C | 84% | 1042.1 hPa | 0 mm | - | - | - |
| 1778182225 | 10° C | 83% | 1041.7 hPa | 0 mm | - | - | - |
| 1778181624 | 10° C | 82% | 1041.8 hPa | 0 mm | - | - | - |
| 1778181025 | 10.56° C | 81% | 1041.5 hPa | 0 mm | - | - | - |
| 1778180425 | 10.56° C | 81% | 1041.3 hPa | 0 mm | - | - | - |
| 1778179825 | 11.11° C | 80% | 1041.4 hPa | 0 mm | - | - | - |
| 1778179224 | 11.11° C | 80% | 1041.1 hPa | 0 mm | - | - | - |
| 1778178625 | 11.67° C | 79% | 1041 hPa | 0 mm | - | - | - |
| 1778178025 | 12.22° C | 77% | 1040.9 hPa | 0 mm | - | - | - |
| 1778177425 | 12.78° C | 72% | 1040.9 hPa | 0 mm | - | - | - |
| 1778176826 | 13.33° C | 69% | 1040.8 hPa | 0 mm | - | - | - |
| 1778176225 | 13.89° C | 67% | 1040.8 hPa | 0 mm | - | - | - |
| 1778175624 | 14.44° C | 65% | 1040.8 hPa | 0 mm | - | - | - |
| 1778175025 | 14.44° C | 65% | 1040.5 hPa | 0 mm | - | - | - |
* Rain latest hour (hover to see other rain measurements)
** Current wind speed in m/s (hover to see current wind gust speed)